Flight Track Log - Related Links

Times and Time Zones

All times are in EDT time to prevent confusion due to time zone crossing. See the EJA951 flight status page for this flight to view local times or setup timezone preferences in your user account.

Time Position Orientation Groundspeed Altitude Reporting Facility
EDT Latitude Longitude Course Direction KTS km/h feet Rate Location/Type
Fri 03:48:16 PM 30.0250 -81.3092 50° Northeast 240 444 5.900  Level Jacksonville Center
Fri 03:48:33 PM 30.0394 -81.2922 45° Northeast 234 433 6.600 3.913 Climbing Jacksonville Center
Fri 03:50:34 PM 30.0358 -81.1794 92° East 226 418 14.900 3.133 Climbing Jacksonville Center
Fri 03:51:33 PM 29.9439 -81.1714 176° South 197 365 16.000 555 Climbing Jacksonville Center
Fri 03:52:33 PM 29.8331 -81.1592 175° South 312 578 16.000  Level Jacksonville Center
Fri 03:53:34 PM 29.7072 -81.1256 167° South 395 732 16.000  Level Jacksonville Center
Fri 03:54:33 PM 29.5878 -81.0847 163° South 431 798 16.000  Level Jacksonville Center
Fri 03:55:33 PM 29.4639 -81.0417 163° South 452 837 16.000  Level Jacksonville Center
Fri 03:56:34 PM 29.3467 -81.0081 166° South 452 837 16.000  Level Jacksonville Center
Fri 03:57:33 PM 29.2269 -80.9700 164° South 452 837 16.000  Level Jacksonville Center
Fri 03:58:33 PM 29.1075 -80.9319 164° South 452 837 16.000  Level Jacksonville Center
Fri 03:59:33 PM 28.9858 -80.8939 165° South 452 837 16.000 -450 Level Jacksonville Center
Fri 04:00:33 PM 28.8767 -80.8606 165° South 446 826 15.100 -1.415 Descending Jacksonville Center
Fri 04:01:36 PM 28.7667 -80.8167 161° South 388 719 13.100 -1.839 Descending Orlando TRACON
Fri 04:02:37 PM 28.6667 -80.8000 172° South 383 710 11.300 -1.701 Descending Orlando TRACON
Fri 04:03:43 PM 28.5667 -80.7667 164° South 332 615 9.500 -1.632 Descending Orlando TRACON
Fri 04:04:31 PM 28.5000 -80.7333 156° South 310 575 8.200 -1.228 Descending Orlando TRACON
Fri 04:06:34 PM 28.3369 -80.6942 168° South 298 552 6.000 -721 Descending Miami Center
Fri 04:07:34 PM 28.2689 -80.6731 165° South 272 504 6.000  Level Miami Center
Fri 04:08:34 PM 28.2044 -80.6544 166° South 272 504 6.000  Level Miami Center
Fri 04:09:34 PM 28.1281 -80.6306 165° South 278 515 6.000  Level Miami Center
Fri 04:10:34 PM 28.0472 -80.6044 164° South 278 515 6.000  Level Miami Center
Fri 04:11:34 PM 27.9725 -80.5856 167° South 278 515 6.000  Level Miami Center
Fri 04:12:34 PM 27.8978 -80.5714 170° South 278 515 6.000 -650 Level Miami Center
Fri 04:13:34 PM 27.8356 -80.5553 167° South 267 494 4.700 -1.000 Descending Miami Center
Fri 04:14:34 PM 27.7669 -80.5436 171° South 257 476 4.000 -400 Descending Miami Center
Fri 04:15:34 PM 27.6986 -80.5272 168° South 240 444 3.900 -700 Descending Miami Center
Fri 04:16:34 PM 27.6342 -80.5136 169° South 240 444 2.600 -1.150 Descending Miami Center
Fri 04:17:34 PM 27.5697 -80.5022 171° South 240 444 1.600 -500 Descending Miami Center
Fri 04:18:34 PM 27.5283 -80.4961 173° South 202 373 1.600  Level Miami Center
Fri 04:19:34 PM 27.4842 -80.4994 184° South 167 309 1.600 -150 Level Miami Center
Fri 04:20:34 PM 27.4958 -80.4506 75° East 102 188 1.300 -550 Descending Miami Center
Fri 04:21:34 PM 27.4992 -80.4086 85° East 127 235 500 -800 Descending Miami Center

Login

Don't have an account? Register now (free) for customized features, flight alerts, and more!